sensor_id;sensor_type;location;lat;lon;timestamp;P1;durP1;ratioP1;P2;durP2;ratioP2
70450;SDS011;58869;51.982;4.450;2022-11-20T00:00:55;21.39;;;20.73;;
70450;SDS011;58869;51.982;4.450;2022-11-20T00:03:21;21.68;;;20.87;;
70450;SDS011;58869;51.982;4.450;2022-11-20T00:05:48;20.70;;;19.93;;
70450;SDS011;58869;51.982;4.450;2022-11-20T00:08:13;22.12;;;21.28;;
70450;SDS011;58869;51.982;4.450;2022-11-20T00:10:39;21.76;;;21.04;;
70450;SDS011;58869;51.982;4.450;2022-11-20T00:13:05;21.43;;;20.79;;
70450;SDS011;58869;51.982;4.450;2022-11-20T00:15:31;21.82;;;21.20;;
70450;SDS011;58869;51.982;4.450;2022-11-20T00:17:57;21.86;;;21.08;;
70450;SDS011;58869;51.982;4.450;2022-11-20T00:20:22;21.84;;;21.04;;
70450;SDS011;58869;51.982;4.450;2022-11-20T00:22:48;21.69;;;21.01;;
70450;SDS011;58869;51.982;4.450;2022-11-20T00:25:14;21.15;;;20.57;;
70450;SDS011;58869;51.982;4.450;2022-11-20T00:27:40;20.33;;;19.79;;
70450;SDS011;58869;51.982;4.450;2022-11-20T00:30:06;21.43;;;20.69;;
70450;SDS011;58869;51.982;4.450;2022-11-20T00:32:32;21.04;;;20.45;;
70450;SDS011;58869;51.982;4.450;2022-11-20T00:34:57;21.30;;;20.72;;
70450;SDS011;58869;51.982;4.450;2022-11-20T00:37:23;20.91;;;20.43;;
70450;SDS011;58869;51.982;4.450;2022-11-20T00:39:48;21.14;;;20.65;;
70450;SDS011;58869;51.982;4.450;2022-11-20T00:42:14;20.39;;;19.66;;
70450;SDS011;58869;51.982;4.450;2022-11-20T00:44:39;20.40;;;19.86;;
70450;SDS011;58869;51.982;4.450;2022-11-20T00:47:05;20.42;;;19.90;;
70450;SDS011;58869;51.982;4.450;2022-11-20T00:49:30;21.20;;;20.58;;
70450;SDS011;58869;51.982;4.450;2022-11-20T00:51:57;21.47;;;20.78;;
70450;SDS011;58869;51.982;4.450;2022-11-20T00:54:22;21.56;;;21.01;;
70450;SDS011;58869;51.982;4.450;2022-11-20T00:56:48;21.39;;;20.81;;
70450;SDS011;58869;51.982;4.450;2022-11-20T00:59:16;20.50;;;20.00;;
70450;SDS011;58869;51.982;4.450;2022-11-20T01:01:41;21.09;;;20.59;;
70450;SDS011;58869;51.982;4.450;2022-11-20T01:04:06;20.72;;;20.11;;
70450;SDS011;58869;51.982;4.450;2022-11-20T01:06:36;20.38;;;19.89;;
70450;SDS011;58869;51.982;4.450;2022-11-20T01:09:05;20.50;;;19.90;;
70450;SDS011;58869;51.982;4.450;2022-11-20T01:11:37;21.59;;;21.02;;
70450;SDS011;58869;51.982;4.450;2022-11-20T01:14:05;21.25;;;20.67;;
70450;SDS011;58869;51.982;4.450;2022-11-20T01:16:36;21.36;;;20.88;;
70450;SDS011;58869;51.982;4.450;2022-11-20T01:19:05;21.50;;;21.08;;
70450;SDS011;58869;51.982;4.450;2022-11-20T01:21:33;21.79;;;21.20;;
70450;SDS011;58869;51.982;4.450;2022-11-20T01:24:03;22.95;;;22.25;;
70450;SDS011;58869;51.982;4.450;2022-11-20T01:26:31;22.21;;;21.60;;
70450;SDS011;58869;51.982;4.450;2022-11-20T01:29:01;22.49;;;21.85;;
70450;SDS011;58869;51.982;4.450;2022-11-20T01:31:29;21.94;;;21.37;;
70450;SDS011;58869;51.982;4.450;2022-11-20T01:33:58;22.24;;;21.50;;
70450;SDS011;58869;51.982;4.450;2022-11-20T01:36:35;22.40;;;21.77;;
70450;SDS011;58869;51.982;4.450;2022-11-20T01:39:06;22.38;;;21.79;;
70450;SDS011;58869;51.982;4.450;2022-11-20T01:41:35;22.96;;;22.34;;
70450;SDS011;58869;51.982;4.450;2022-11-20T01:44:21;22.57;;;21.92;;
70450;SDS011;58869;51.982;4.450;2022-11-20T01:47:05;22.80;;;22.06;;
70450;SDS011;58869;51.982;4.450;2022-11-20T01:49:41;22.83;;;22.12;;
70450;SDS011;58869;51.982;4.450;2022-11-20T01:52:23;22.18;;;21.57;;
70450;SDS011;58869;51.982;4.450;2022-11-20T01:54:59;23.08;;;22.35;;
70450;SDS011;58869;51.982;4.450;2022-11-20T01:57:31;22.66;;;21.91;;
70450;SDS011;58869;51.982;4.450;2022-11-20T02:00:06;23.02;;;22.40;;
70450;SDS011;58869;51.982;4.450;2022-11-20T02:02:35;23.31;;;22.49;;
70450;SDS011;58869;51.982;4.450;2022-11-20T02:05:04;23.27;;;22.42;;
70450;SDS011;58869;51.982;4.450;2022-11-20T02:07:57;23.49;;;22.64;;
70450;SDS011;58869;51.982;4.450;2022-11-20T02:10:24;23.63;;;22.89;;
70450;SDS011;58869;51.982;4.450;2022-11-20T02:12:51;22.16;;;21.58;;
70450;SDS011;58869;51.982;4.450;2022-11-20T02:15:35;22.75;;;22.05;;
70450;SDS011;58869;51.982;4.450;2022-11-20T02:18:00;22.41;;;21.73;;
70450;SDS011;58869;51.982;4.450;2022-11-20T02:20:27;22.57;;;22.10;;
70450;SDS011;58869;51.982;4.450;2022-11-20T02:22:55;22.37;;;21.70;;
70450;SDS011;58869;51.982;4.450;2022-11-20T02:25:31;22.68;;;22.12;;
70450;SDS011;58869;51.982;4.450;2022-11-20T02:27:59;22.20;;;21.44;;
70450;SDS011;58869;51.982;4.450;2022-11-20T02:30:25;22.78;;;22.11;;
70450;SDS011;58869;51.982;4.450;2022-11-20T02:32:50;22.91;;;22.22;;
70450;SDS011;58869;51.982;4.450;2022-11-20T02:37:44;22.51;;;21.90;;
70450;SDS011;58869;51.982;4.450;2022-11-20T02:40:13;23.30;;;22.59;;
70450;SDS011;58869;51.982;4.450;2022-11-20T02:42:38;23.40;;;22.73;;
70450;SDS011;58869;51.982;4.450;2022-11-20T02:45:04;22.87;;;22.23;;
70450;SDS011;58869;51.982;4.450;2022-11-20T02:47:30;23.43;;;22.73;;
70450;SDS011;58869;51.982;4.450;2022-11-20T02:49:56;23.41;;;22.58;;
70450;SDS011;58869;51.982;4.450;2022-11-20T02:52:22;24.13;;;23.24;;
70450;SDS011;58869;51.982;4.450;2022-11-20T02:54:48;23.43;;;22.71;;
70450;SDS011;58869;51.982;4.450;2022-11-20T02:57:14;23.84;;;23.23;;
70450;SDS011;58869;51.982;4.450;2022-11-20T02:59:39;23.34;;;22.72;;
70450;SDS011;58869;51.982;4.450;2022-11-20T03:02:05;23.42;;;22.85;;
70450;SDS011;58869;51.982;4.450;2022-11-20T03:04:30;23.67;;;23.02;;
70450;SDS011;58869;51.982;4.450;2022-11-20T03:06:56;24.89;;;24.10;;
70450;SDS011;58869;51.982;4.450;2022-11-20T03:09:21;23.42;;;22.62;;
70450;SDS011;58869;51.982;4.450;2022-11-20T03:11:47;24.04;;;23.08;;
70450;SDS011;58869;51.982;4.450;2022-11-20T03:14:12;23.58;;;22.95;;
70450;SDS011;58869;51.982;4.450;2022-11-20T03:16:38;23.67;;;23.07;;
70450;SDS011;58869;51.982;4.450;2022-11-20T03:19:03;23.83;;;23.22;;
70450;SDS011;58869;51.982;4.450;2022-11-20T03:21:29;23.66;;;22.88;;
70450;SDS011;58869;51.982;4.450;2022-11-20T03:23:54;24.09;;;23.35;;
70450;SDS011;58869;51.982;4.450;2022-11-20T03:26:22;24.36;;;23.73;;
70450;SDS011;58869;51.982;4.450;2022-11-20T03:28:49;25.04;;;24.12;;
70450;SDS011;58869;51.982;4.450;2022-11-20T03:31:17;23.96;;;23.24;;
70450;SDS011;58869;51.982;4.450;2022-11-20T03:33:48;24.54;;;23.57;;
70450;SDS011;58869;51.982;4.450;2022-11-20T03:36:15;24.49;;;23.63;;
70450;SDS011;58869;51.982;4.450;2022-11-20T03:38:42;24.47;;;23.48;;
70450;SDS011;58869;51.982;4.450;2022-11-20T03:41:13;24.55;;;23.71;;
70450;SDS011;58869;51.982;4.450;2022-11-20T03:43:47;23.45;;;22.64;;
70450;SDS011;58869;51.982;4.450;2022-11-20T03:46:19;23.63;;;22.87;;
70450;SDS011;58869;51.982;4.450;2022-11-20T03:48:45;24.25;;;23.33;;
70450;SDS011;58869;51.982;4.450;2022-11-20T03:51:17;24.05;;;23.29;;
70450;SDS011;58869;51.982;4.450;2022-11-20T03:53:45;24.00;;;23.21;;
70450;SDS011;58869;51.982;4.450;2022-11-20T03:56:12;23.72;;;23.02;;
70450;SDS011;58869;51.982;4.450;2022-11-20T03:58:39;22.98;;;22.22;;
70450;SDS011;58869;51.982;4.450;2022-11-20T04:01:06;23.78;;;23.09;;
70450;SDS011;58869;51.982;4.450;2022-11-20T04:03:36;23.92;;;23.03;;
70450;SDS011;58869;51.982;4.450;2022-11-20T04:06:21;24.44;;;23.66;;
70450;SDS011;58869;51.982;4.450;2022-11-20T04:08:55;23.75;;;23.01;;
70450;SDS011;58869;51.982;4.450;2022-11-20T04:11:22;23.62;;;23.03;;
70450;SDS011;58869;51.982;4.450;2022-11-20T04:13:53;23.73;;;23.08;;
70450;SDS011;58869;51.982;4.450;2022-11-20T04:16:21;24.33;;;23.64;;
70450;SDS011;58869;51.982;4.450;2022-11-20T04:18:51;24.04;;;23.25;;
70450;SDS011;58869;51.982;4.450;2022-11-20T04:21:18;23.75;;;23.11;;
70450;SDS011;58869;51.982;4.450;2022-11-20T04:23:43;23.67;;;22.95;;
70450;SDS011;58869;51.982;4.450;2022-11-20T04:26:09;24.18;;;23.42;;
70450;SDS011;58869;51.982;4.450;2022-11-20T04:28:36;24.10;;;23.52;;
70450;SDS011;58869;51.982;4.450;2022-11-20T04:31:04;24.75;;;24.14;;
70450;SDS011;58869;51.982;4.450;2022-11-20T04:33:31;24.39;;;23.52;;
70450;SDS011;58869;51.982;4.450;2022-11-20T04:35:59;24.18;;;23.34;;
70450;SDS011;58869;51.982;4.450;2022-11-20T04:38:30;24.11;;;23.31;;
70450;SDS011;58869;51.982;4.450;2022-11-20T04:40:56;24.68;;;23.69;;
70450;SDS011;58869;51.982;4.450;2022-11-20T04:43:25;25.35;;;24.32;;
70450;SDS011;58869;51.982;4.450;2022-11-20T04:45:51;25.70;;;24.52;;
70450;SDS011;58869;51.982;4.450;2022-11-20T04:48:18;24.62;;;23.91;;
70450;SDS011;58869;51.982;4.450;2022-11-20T04:50:43;25.52;;;24.75;;
70450;SDS011;58869;51.982;4.450;2022-11-20T04:53:09;26.29;;;25.50;;
70450;SDS011;58869;51.982;4.450;2022-11-20T04:55:34;25.79;;;24.86;;
70450;SDS011;58869;51.982;4.450;2022-11-20T04:58:00;24.56;;;23.72;;
70450;SDS011;58869;51.982;4.450;2022-11-20T05:00:28;24.97;;;23.93;;
70450;SDS011;58869;51.982;4.450;2022-11-20T05:02:53;25.02;;;24.14;;
70450;SDS011;58869;51.982;4.450;2022-11-20T05:05:19;23.75;;;23.07;;
70450;SDS011;58869;51.982;4.450;2022-11-20T05:07:44;24.04;;;23.22;;
70450;SDS011;58869;51.982;4.450;2022-11-20T05:10:10;24.19;;;23.64;;
70450;SDS011;58869;51.982;4.450;2022-11-20T05:12:35;23.99;;;23.24;;
70450;SDS011;58869;51.982;4.450;2022-11-20T05:15:00;23.96;;;23.09;;
70450;SDS011;58869;51.982;4.450;2022-11-20T05:17:26;23.70;;;22.91;;
70450;SDS011;58869;51.982;4.450;2022-11-20T05:19:51;23.65;;;22.83;;
70450;SDS011;58869;51.982;4.450;2022-11-20T05:22:17;24.18;;;23.35;;
70450;SDS011;58869;51.982;4.450;2022-11-20T05:24:42;23.33;;;22.63;;
70450;SDS011;58869;51.982;4.450;2022-11-20T05:27:08;23.28;;;22.57;;
70450;SDS011;58869;51.982;4.450;2022-11-20T05:29:33;24.24;;;23.43;;
70450;SDS011;58869;51.982;4.450;2022-11-20T05:31:59;23.38;;;22.66;;
70450;SDS011;58869;51.982;4.450;2022-11-20T05:34:24;24.59;;;23.69;;
70450;SDS011;58869;51.982;4.450;2022-11-20T05:36:49;23.48;;;22.64;;
70450;SDS011;58869;51.982;4.450;2022-11-20T05:39:15;23.22;;;22.46;;
70450;SDS011;58869;51.982;4.450;2022-11-20T05:41:40;22.92;;;22.36;;
70450;SDS011;58869;51.982;4.450;2022-11-20T05:44:06;23.05;;;22.56;;
70450;SDS011;58869;51.982;4.450;2022-11-20T05:46:31;24.00;;;23.34;;
70450;SDS011;58869;51.982;4.450;2022-11-20T05:48:57;23.58;;;22.88;;
70450;SDS011;58869;51.982;4.450;2022-11-20T05:51:23;24.46;;;23.61;;
70450;SDS011;58869;51.982;4.450;2022-11-20T05:53:50;24.80;;;24.20;;
70450;SDS011;58869;51.982;4.450;2022-11-20T05:56:17;24.64;;;23.86;;
70450;SDS011;58869;51.982;4.450;2022-11-20T05:58:44;24.78;;;24.24;;
70450;SDS011;58869;51.982;4.450;2022-11-20T06:03:36;24.90;;;24.10;;
70450;SDS011;58869;51.982;4.450;2022-11-20T06:06:03;26.29;;;25.54;;
70450;SDS011;58869;51.982;4.450;2022-11-20T06:08:29;26.44;;;25.55;;
70450;SDS011;58869;51.982;4.450;2022-11-20T06:10:55;26.04;;;25.22;;
70450;SDS011;58869;51.982;4.450;2022-11-20T06:13:21;26.02;;;25.23;;
70450;SDS011;58869;51.982;4.450;2022-11-20T06:15:48;26.49;;;25.65;;
70450;SDS011;58869;51.982;4.450;2022-11-20T06:18:17;27.13;;;26.15;;
70450;SDS011;58869;51.982;4.450;2022-11-20T06:20:50;26.39;;;25.58;;
70450;SDS011;58869;51.982;4.450;2022-11-20T06:23:27;27.10;;;25.98;;
70450;SDS011;58869;51.982;4.450;2022-11-20T06:25:54;27.79;;;26.53;;
70450;SDS011;58869;51.982;4.450;2022-11-20T06:28:19;26.58;;;25.83;;
70450;SDS011;58869;51.982;4.450;2022-11-20T06:30:45;26.95;;;26.12;;
70450;SDS011;58869;51.982;4.450;2022-11-20T06:33:11;27.63;;;26.77;;
70450;SDS011;58869;51.982;4.450;2022-11-20T06:35:38;27.26;;;26.40;;
70450;SDS011;58869;51.982;4.450;2022-11-20T06:38:03;27.59;;;26.77;;
70450;SDS011;58869;51.982;4.450;2022-11-20T06:40:28;27.65;;;26.53;;
70450;SDS011;58869;51.982;4.450;2022-11-20T06:42:54;27.21;;;26.17;;
70450;SDS011;58869;51.982;4.450;2022-11-20T06:45:20;27.45;;;26.51;;
70450;SDS011;58869;51.982;4.450;2022-11-20T06:47:46;27.49;;;26.60;;
70450;SDS011;58869;51.982;4.450;2022-11-20T06:50:11;27.84;;;26.95;;
70450;SDS011;58869;51.982;4.450;2022-11-20T06:52:37;27.59;;;26.62;;
70450;SDS011;58869;51.982;4.450;2022-11-20T06:55:03;27.93;;;26.92;;
70450;SDS011;58869;51.982;4.450;2022-11-20T06:57:28;27.86;;;26.77;;
70450;SDS011;58869;51.982;4.450;2022-11-20T06:59:54;27.88;;;26.85;;
70450;SDS011;58869;51.982;4.450;2022-11-20T07:02:19;28.19;;;27.17;;
70450;SDS011;58869;51.982;4.450;2022-11-20T07:04:45;29.03;;;27.71;;
70450;SDS011;58869;51.982;4.450;2022-11-20T07:07:10;26.93;;;26.06;;
70450;SDS011;58869;51.982;4.450;2022-11-20T07:09:36;27.83;;;26.96;;
70450;SDS011;58869;51.982;4.450;2022-11-20T07:12:01;27.19;;;26.43;;
70450;SDS011;58869;51.982;4.450;2022-11-20T07:14:27;28.51;;;27.41;;
70450;SDS011;58869;51.982;4.450;2022-11-20T07:16:52;28.29;;;27.19;;
70450;SDS011;58869;51.982;4.450;2022-11-20T07:19:17;27.96;;;26.86;;
70450;SDS011;58869;51.982;4.450;2022-11-20T07:21:43;28.82;;;27.68;;
70450;SDS011;58869;51.982;4.450;2022-11-20T07:24:08;27.96;;;27.10;;
70450;SDS011;58869;51.982;4.450;2022-11-20T07:26:34;28.68;;;27.76;;
70450;SDS011;58869;51.982;4.450;2022-11-20T07:28:59;29.59;;;28.36;;
70450;SDS011;58869;51.982;4.450;2022-11-20T07:31:25;29.20;;;28.20;;
70450;SDS011;58869;51.982;4.450;2022-11-20T07:33:50;29.35;;;28.34;;
70450;SDS011;58869;51.982;4.450;2022-11-20T07:36:16;28.69;;;27.88;;
70450;SDS011;58869;51.982;4.450;2022-11-20T07:38:42;29.72;;;28.70;;
70450;SDS011;58869;51.982;4.450;2022-11-20T07:41:07;30.27;;;29.12;;
70450;SDS011;58869;51.982;4.450;2022-11-20T07:43:33;30.24;;;29.04;;
70450;SDS011;58869;51.982;4.450;2022-11-20T07:45:58;29.94;;;29.00;;
70450;SDS011;58869;51.982;4.450;2022-11-20T07:48:24;29.77;;;28.89;;
70450;SDS011;58869;51.982;4.450;2022-11-20T07:50:53;29.95;;;28.91;;
70450;SDS011;58869;51.982;4.450;2022-11-20T07:53:21;31.08;;;29.94;;
70450;SDS011;58869;51.982;4.450;2022-11-20T07:55:48;30.74;;;29.50;;
70450;SDS011;58869;51.982;4.450;2022-11-20T07:58:14;30.41;;;29.29;;
70450;SDS011;58869;51.982;4.450;2022-11-20T08:00:39;29.90;;;28.98;;
70450;SDS011;58869;51.982;4.450;2022-11-20T08:03:05;30.19;;;29.16;;
70450;SDS011;58869;51.982;4.450;2022-11-20T08:05:31;29.85;;;28.72;;
70450;SDS011;58869;51.982;4.450;2022-11-20T08:07:58;30.32;;;29.09;;
70450;SDS011;58869;51.982;4.450;2022-11-20T08:10:23;31.43;;;30.14;;
70450;SDS011;58869;51.982;4.450;2022-11-20T08:12:51;31.19;;;29.93;;
70450;SDS011;58869;51.982;4.450;2022-11-20T08:15:37;30.21;;;29.16;;
70450;SDS011;58869;51.982;4.450;2022-11-20T08:18:21;30.96;;;29.89;;
70450;SDS011;58869;51.982;4.450;2022-11-20T08:20:47;30.52;;;29.36;;
70450;SDS011;58869;51.982;4.450;2022-11-20T08:23:12;30.59;;;29.48;;
70450;SDS011;58869;51.982;4.450;2022-11-20T08:25:48;29.76;;;28.66;;
70450;SDS011;58869;51.982;4.450;2022-11-20T08:28:15;30.78;;;29.73;;
70450;SDS011;58869;51.982;4.450;2022-11-20T08:30:40;30.29;;;29.26;;
70450;SDS011;58869;51.982;4.450;2022-11-20T08:33:07;30.08;;;29.14;;
70450;SDS011;58869;51.982;4.450;2022-11-20T08:35:34;30.25;;;29.11;;
70450;SDS011;58869;51.982;4.450;2022-11-20T08:38:01;30.46;;;29.58;;
70450;SDS011;58869;51.982;4.450;2022-11-20T08:40:30;29.97;;;28.82;;
70450;SDS011;58869;51.982;4.450;2022-11-20T08:42:56;30.95;;;29.67;;
70450;SDS011;58869;51.982;4.450;2022-11-20T08:45:21;30.38;;;29.50;;
70450;SDS011;58869;51.982;4.450;2022-11-20T08:47:47;30.26;;;29.15;;
70450;SDS011;58869;51.982;4.450;2022-11-20T08:50:13;30.62;;;29.59;;
70450;SDS011;58869;51.982;4.450;2022-11-20T08:52:40;30.82;;;29.70;;
70450;SDS011;58869;51.982;4.450;2022-11-20T08:55:05;30.26;;;29.42;;
70450;SDS011;58869;51.982;4.450;2022-11-20T08:57:32;31.02;;;30.20;;
70450;SDS011;58869;51.982;4.450;2022-11-20T08:59:59;32.48;;;31.22;;
70450;SDS011;58869;51.982;4.450;2022-11-20T09:02:24;32.23;;;31.24;;
70450;SDS011;58869;51.982;4.450;2022-11-20T09:04:50;32.88;;;31.80;;
70450;SDS011;58869;51.982;4.450;2022-11-20T09:07:17;33.37;;;32.22;;
70450;SDS011;58869;51.982;4.450;2022-11-20T09:09:42;32.18;;;31.02;;
70450;SDS011;58869;51.982;4.450;2022-11-20T09:12:08;32.02;;;30.78;;
70450;SDS011;58869;51.982;4.450;2022-11-20T09:14:33;31.93;;;30.82;;
70450;SDS011;58869;51.982;4.450;2022-11-20T09:16:59;32.42;;;31.25;;
70450;SDS011;58869;51.982;4.450;2022-11-20T09:19:24;32.35;;;31.06;;
70450;SDS011;58869;51.982;4.450;2022-11-20T09:21:50;32.89;;;31.74;;
70450;SDS011;58869;51.982;4.450;2022-11-20T09:24:16;31.94;;;30.94;;
70450;SDS011;58869;51.982;4.450;2022-11-20T09:26:41;32.21;;;31.10;;
70450;SDS011;58869;51.982;4.450;2022-11-20T09:29:07;32.37;;;31.25;;
70450;SDS011;58869;51.982;4.450;2022-11-20T09:31:32;33.76;;;32.48;;
70450;SDS011;58869;51.982;4.450;2022-11-20T09:33:58;33.41;;;32.23;;
70450;SDS011;58869;51.982;4.450;2022-11-20T09:36:23;33.57;;;32.36;;
70450;SDS011;58869;51.982;4.450;2022-11-20T09:38:49;33.90;;;32.62;;
70450;SDS011;58869;51.982;4.450;2022-11-20T09:44:19;34.17;;;32.90;;
70450;SDS011;58869;51.982;4.450;2022-11-20T09:47:02;34.34;;;32.95;;
70450;SDS011;58869;51.982;4.450;2022-11-20T09:49:37;35.49;;;34.06;;
70450;SDS011;58869;51.982;4.450;2022-11-20T09:55:30;35.14;;;33.91;;
70450;SDS011;58869;51.982;4.450;2022-11-20T09:57:56;35.02;;;34.07;;
70450;SDS011;58869;51.982;4.450;2022-11-20T10:00:24;35.82;;;34.60;;
70450;SDS011;58869;51.982;4.450;2022-11-20T10:02:58;36.36;;;35.24;;
70450;SDS011;58869;51.982;4.450;2022-11-20T10:05:45;36.32;;;35.03;;
70450;SDS011;58869;51.982;4.450;2022-11-20T10:14:01;36.43;;;35.19;;
70450;SDS011;58869;51.982;4.450;2022-11-20T10:19:55;37.06;;;35.71;;
70450;SDS011;58869;51.982;4.450;2022-11-20T10:22:49;37.07;;;35.89;;
70450;SDS011;58869;51.982;4.450;2022-11-20T10:25:39;37.27;;;36.14;;
70450;SDS011;58869;51.982;4.450;2022-11-20T10:30:55;37.65;;;36.34;;
70450;SDS011;58869;51.982;4.450;2022-11-20T10:33:29;36.29;;;35.28;;
70450;SDS011;58869;51.982;4.450;2022-11-20T10:36:42;36.96;;;35.86;;
70450;SDS011;58869;51.982;4.450;2022-11-20T10:41:24;36.73;;;35.46;;
70450;SDS011;58869;51.982;4.450;2022-11-20T10:47:04;36.09;;;34.85;;
70450;SDS011;58869;51.982;4.450;2022-11-20T10:49:31;37.28;;;36.06;;
70450;SDS011;58869;51.982;4.450;2022-11-20T10:52:09;36.03;;;35.06;;
70450;SDS011;58869;51.982;4.450;2022-11-20T10:54:49;36.50;;;35.51;;
70450;SDS011;58869;51.982;4.450;2022-11-20T11:00:46;38.03;;;36.81;;
70450;SDS011;58869;51.982;4.450;2022-11-20T11:03:20;38.91;;;37.41;;
70450;SDS011;58869;51.982;4.450;2022-11-20T11:08:40;37.27;;;36.12;;
70450;SDS011;58869;51.982;4.450;2022-11-20T11:11:11;38.61;;;37.28;;
70450;SDS011;58869;51.982;4.450;2022-11-20T11:13:49;38.42;;;36.91;;
70450;SDS011;58869;51.982;4.450;2022-11-20T11:16:25;38.54;;;37.01;;
70450;SDS011;58869;51.982;4.450;2022-11-20T11:18:52;38.93;;;37.45;;
70450;SDS011;58869;51.982;4.450;2022-11-20T11:21:29;38.92;;;37.48;;
70450;SDS011;58869;51.982;4.450;2022-11-20T11:24:04;38.65;;;37.46;;
70450;SDS011;58869;51.982;4.450;2022-11-20T11:26:29;39.00;;;37.68;;
70450;SDS011;58869;51.982;4.450;2022-11-20T11:28:59;39.49;;;37.91;;
70450;SDS011;58869;51.982;4.450;2022-11-20T11:31:29;38.51;;;37.33;;
70450;SDS011;58869;51.982;4.450;2022-11-20T11:34:13;40.32;;;38.98;;
70450;SDS011;58869;51.982;4.450;2022-11-20T11:36:40;40.13;;;38.79;;
70450;SDS011;58869;51.982;4.450;2022-11-20T11:39:10;40.53;;;39.25;;
70450;SDS011;58869;51.982;4.450;2022-11-20T11:41:39;41.56;;;39.85;;
70450;SDS011;58869;51.982;4.450;2022-11-20T11:44:16;41.72;;;40.21;;
70450;SDS011;58869;51.982;4.450;2022-11-20T11:47:05;43.71;;;41.92;;
70450;SDS011;58869;51.982;4.450;2022-11-20T11:49:36;43.13;;;41.72;;
70450;SDS011;58869;51.982;4.450;2022-11-20T11:52:10;44.16;;;42.44;;
70450;SDS011;58869;51.982;4.450;2022-11-20T11:54:53;44.41;;;42.42;;
70450;SDS011;58869;51.982;4.450;2022-11-20T12:03:36;45.45;;;43.95;;
70450;SDS011;58869;51.982;4.450;2022-11-20T12:05:49;46.76;;;44.80;;
70450;SDS011;58869;51.982;4.450;2022-11-20T12:09:05;47.36;;;45.02;;
70450;SDS011;58869;51.982;4.450;2022-11-20T12:14:22;45.62;;;43.79;;
70450;SDS011;58869;51.982;4.450;2022-11-20T12:17:02;45.34;;;43.63;;
70450;SDS011;58869;51.982;4.450;2022-11-20T12:19:31;46.48;;;44.36;;
70450;SDS011;58869;51.982;4.450;2022-11-20T12:24:32;46.05;;;44.27;;
70450;SDS011;58869;51.982;4.450;2022-11-20T12:32:28;44.65;;;42.98;;
70450;SDS011;58869;51.982;4.450;2022-11-20T12:37:37;45.05;;;43.16;;
70450;SDS011;58869;51.982;4.450;2022-11-20T12:46:07;44.98;;;43.05;;
70450;SDS011;58869;51.982;4.450;2022-11-20T12:51:48;45.59;;;43.36;;
70450;SDS011;58869;51.982;4.450;2022-11-20T12:54:53;44.92;;;42.63;;
70450;SDS011;58869;51.982;4.450;2022-11-20T13:08:33;44.17;;;42.49;;
70450;SDS011;58869;51.982;4.450;2022-11-20T13:11:17;44.53;;;42.76;;
70450;SDS011;58869;51.982;4.450;2022-11-20T13:14:04;44.89;;;43.09;;
70450;SDS011;58869;51.982;4.450;2022-11-20T13:17:00;46.01;;;44.18;;
70450;SDS011;58869;51.982;4.450;2022-11-20T13:19:33;45.54;;;43.68;;
70450;SDS011;58869;51.982;4.450;2022-11-20T13:21:59;45.13;;;43.33;;
70450;SDS011;58869;51.982;4.450;2022-11-20T13:24:28;45.87;;;43.93;;
70450;SDS011;58869;51.982;4.450;2022-11-20T13:29:32;45.20;;;43.84;;
70450;SDS011;58869;51.982;4.450;2022-11-20T13:32:06;45.26;;;43.62;;
70450;SDS011;58869;51.982;4.450;2022-11-20T13:34:50;45.60;;;43.82;;
70450;SDS011;58869;51.982;4.450;2022-11-20T13:37:30;45.08;;;43.42;;
70450;SDS011;58869;51.982;4.450;2022-11-20T13:42:39;44.84;;;43.33;;
70450;SDS011;58869;51.982;4.450;2022-11-20T13:45:27;44.63;;;43.03;;
70450;SDS011;58869;51.982;4.450;2022-11-20T13:47:57;46.24;;;44.35;;
70450;SDS011;58869;51.982;4.450;2022-11-20T13:53:18;47.17;;;44.79;;
70450;SDS011;58869;51.982;4.450;2022-11-20T13:56:16;47.41;;;45.51;;
70450;SDS011;58869;51.982;4.450;2022-11-20T14:01:36;49.29;;;46.74;;
70450;SDS011;58869;51.982;4.450;2022-11-20T14:04:08;49.49;;;47.05;;
70450;SDS011;58869;51.982;4.450;2022-11-20T14:06:44;47.96;;;45.82;;
70450;SDS011;58869;51.982;4.450;2022-11-20T14:09:12;49.28;;;46.90;;
70450;SDS011;58869;51.982;4.450;2022-11-20T14:11:49;48.65;;;46.44;;
70450;SDS011;58869;51.982;4.450;2022-11-20T14:14:16;49.57;;;47.22;;
70450;SDS011;58869;51.982;4.450;2022-11-20T14:16:45;47.67;;;45.72;;
70450;SDS011;58869;51.982;4.450;2022-11-20T14:21:47;47.28;;;45.31;;
70450;SDS011;58869;51.982;4.450;2022-11-20T14:24:31;47.22;;;45.22;;
70450;SDS011;58869;51.982;4.450;2022-11-20T14:26:56;47.45;;;45.34;;
70450;SDS011;58869;51.982;4.450;2022-11-20T14:29:23;47.79;;;45.59;;
70450;SDS011;58869;51.982;4.450;2022-11-20T14:31:54;46.04;;;44.09;;
70450;SDS011;58869;51.982;4.450;2022-11-20T14:34:22;47.36;;;45.01;;
70450;SDS011;58869;51.982;4.450;2022-11-20T14:36:55;47.10;;;44.83;;
70450;SDS011;58869;51.982;4.450;2022-11-20T14:39:37;47.22;;;44.90;;
70450;SDS011;58869;51.982;4.450;2022-11-20T14:45:02;46.91;;;44.67;;
70450;SDS011;58869;51.982;4.450;2022-11-20T14:47:29;47.19;;;44.83;;
70450;SDS011;58869;51.982;4.450;2022-11-20T14:49:55;46.94;;;44.63;;
70450;SDS011;58869;51.982;4.450;2022-11-20T14:52:23;47.07;;;44.66;;
70450;SDS011;58869;51.982;4.450;2022-11-20T14:54:51;46.40;;;44.25;;
70450;SDS011;58869;51.982;4.450;2022-11-20T14:59:51;46.52;;;44.12;;
70450;SDS011;58869;51.982;4.450;2022-11-20T15:02:33;46.43;;;44.15;;
70450;SDS011;58869;51.982;4.450;2022-11-20T15:04:59;46.62;;;44.28;;
70450;SDS011;58869;51.982;4.450;2022-11-20T15:07:32;46.38;;;44.00;;
70450;SDS011;58869;51.982;4.450;2022-11-20T15:10:07;45.65;;;43.42;;
70450;SDS011;58869;51.982;4.450;2022-11-20T15:12:54;46.48;;;43.94;;
70450;SDS011;58869;51.982;4.450;2022-11-20T15:18:17;43.09;;;41.35;;
70450;SDS011;58869;51.982;4.450;2022-11-20T15:20:44;43.98;;;42.24;;
70450;SDS011;58869;51.982;4.450;2022-11-20T15:23:12;43.35;;;41.61;;
70450;SDS011;58869;51.982;4.450;2022-11-20T15:25:39;42.36;;;40.68;;
70450;SDS011;58869;51.982;4.450;2022-11-20T15:28:12;42.58;;;41.27;;
70450;SDS011;58869;51.982;4.450;2022-11-20T15:30:40;43.57;;;41.56;;
70450;SDS011;58869;51.982;4.450;2022-11-20T15:33:07;43.35;;;41.27;;
70450;SDS011;58869;51.982;4.450;2022-11-20T15:35:33;42.25;;;40.18;;
70450;SDS011;58869;51.982;4.450;2022-11-20T15:37:59;41.57;;;39.50;;
70450;SDS011;58869;51.982;4.450;2022-11-20T15:40:24;40.89;;;39.04;;
70450;SDS011;58869;51.982;4.450;2022-11-20T15:42:50;41.95;;;40.03;;
70450;SDS011;58869;51.982;4.450;2022-11-20T15:45:43;40.13;;;38.73;;
70450;SDS011;58869;51.982;4.450;2022-11-20T15:48:16;38.82;;;37.62;;
70450;SDS011;58869;51.982;4.450;2022-11-20T15:50:57;39.24;;;37.69;;
70450;SDS011;58869;51.982;4.450;2022-11-20T15:53:36;38.60;;;37.65;;
70450;SDS011;58869;51.982;4.450;2022-11-20T15:56:02;39.40;;;37.63;;
70450;SDS011;58869;51.982;4.450;2022-11-20T15:58:28;37.96;;;36.68;;
70450;SDS011;58869;51.982;4.450;2022-11-20T16:00:53;38.71;;;37.54;;
70450;SDS011;58869;51.982;4.450;2022-11-20T16:03:19;38.62;;;37.54;;
70450;SDS011;58869;51.982;4.450;2022-11-20T16:05:45;39.30;;;37.62;;
70450;SDS011;58869;51.982;4.450;2022-11-20T16:08:10;38.52;;;37.43;;
70450;SDS011;58869;51.982;4.450;2022-11-20T16:10:36;39.38;;;38.31;;